Estación Meteorológica Peña el Pijo (Robertgarden) [ 11/12/18 21:41:31 CET ]

Fecha Hora Presion(HPa) Temp (°C) Humedad % Rocio (°C) Viento ( m/s) Direccion Lluvia 1Hora(mm) Lluvia 24H(mm) LLuvia Total(mm)
2018-Jul-13 01:01:56 1010.500 21.3 60 13.3         269.36
2018-Jul-13 02:01:55 1010.300 19.9 62 12.4         269.36
2018-Jul-13 03:01:42 1010.400 19.1 71 13.7         269.36
2018-Jul-13 04:01:38 1010.000 18.4 78 14.5         269.36
2018-Jul-13 05:01:36 1010.300 17.1 79 13.4         269.36
2018-Jul-13 06:01:39 1010.000 17.3 79 13.6         269.36
2018-Jul-13 07:01:53 1010.200 17.1 78 13.2         269.36
2018-Jul-13 08:01:38 1010.700 16.9 77 12.8         269.36
2018-Jul-13 09:01:47 1010.400 18.8 76 14.5         269.36
2018-Jul-13 10:01:45 1010.600 23.1 67 16.6         269.36
2018-Jul-13 11:01:44 1010.300 26.2 51 15.3         269.36
2018-Jul-13 12:01:47 1010.200 30.2 37 13.8         269.36
2018-Jul-13 13:01:50 1010.200 31.5 35 14.1         269.36
2018-Jul-13 14:01:44 1009.900 32.0 31 12.7         269.36
2018-Jul-13 15:01:33 1009.600 32.9 31 13.5         269.36
2018-Jul-13 16:02:05 1009.500 31.1 35 13.7         269.36
2018-Jul-13 17:01:46 1009.400 32.6 33 14.2         269.36
2018-Jul-13 18:01:47 1009.300 32.2 35 14.7         269.36
2018-Jul-13 19:01:55 1009.600 29.2 40 14.3         269.36
2018-Jul-13 20:01:50 1009.800 26.5 47 14.2         269.36
2018-Jul-13 21:01:53 1010.000 25.1 51 14.3         269.36
2018-Jul-13 22:01:47 1010.800 23.3 58 14.5         269.36
2018-Jul-13 23:01:45 1011.600 22.2 62 14.6         269.36

Temperatura Máxima:32°    Temperatura Mínima:16°
Presión Máxima:1011.600 Hpa    Presión Mínima:1009.300 Hpa


Volver